sensor_id;sensor_type;location;lat;lon;timestamp;temperature;humidity
41722;DHT22;27407;24.142;-110.310;2023-05-01T00:01:44;32.20;74.90
41722;DHT22;27407;24.142;-110.310;2023-05-01T00:04:11;32.20;74.90
41722;DHT22;27407;24.142;-110.310;2023-05-01T00:06:37;32.70;74.60
41722;DHT22;27407;24.142;-110.310;2023-05-01T00:09:04;33.40;73.30
41722;DHT22;27407;24.142;-110.310;2023-05-01T00:11:33;33.80;72.40
41722;DHT22;27407;24.142;-110.310;2023-05-01T00:14:00;34.70;70.70
41722;DHT22;27407;24.142;-110.310;2023-05-01T00:16:26;34.90;70.10
41722;DHT22;27407;24.142;-110.310;2023-05-01T00:18:53;34.60;70.60
41722;DHT22;27407;24.142;-110.310;2023-05-01T00:21:20;34.50;71.20
41722;DHT22;27407;24.142;-110.310;2023-05-01T00:23:46;34.00;72.40
41722;DHT22;27407;24.142;-110.310;2023-05-01T00:26:13;33.50;73.20
41722;DHT22;27407;24.142;-110.310;2023-05-01T00:28:40;33.30;73.60
41722;DHT22;27407;24.142;-110.310;2023-05-01T00:31:06;32.90;74.60
41722;DHT22;27407;24.142;-110.310;2023-05-01T00:33:33;32.30;75.60
41722;DHT22;27407;24.142;-110.310;2023-05-01T00:36:00;31.90;76.50
41722;DHT22;27407;24.142;-110.310;2023-05-01T00:38:26;31.40;77.40
41722;DHT22;27407;24.142;-110.310;2023-05-01T00:40:53;30.80;78.80
41722;DHT22;27407;24.142;-110.310;2023-05-01T00:43:20;30.60;79.30
41722;DHT22;27407;24.142;-110.310;2023-05-01T00:45:46;30.60;79.40
41722;DHT22;27407;24.142;-110.310;2023-05-01T00:48:14;30.20;79.90
41722;DHT22;27407;24.142;-110.310;2023-05-01T00:50:42;30.10;80.70
41722;DHT22;27407;24.142;-110.310;2023-05-01T00:53:10;29.80;81.40
41722;DHT22;27407;24.142;-110.310;2023-05-01T00:55:39;29.60;82.20
41722;DHT22;27407;24.142;-110.310;2023-05-01T00:58:10;29.60;82.50
41722;DHT22;27407;24.142;-110.310;2023-05-01T01:00:37;29.70;82.30
41722;DHT22;27407;24.142;-110.310;2023-05-01T01:03:04;30.10;81.80
41722;DHT22;27407;24.142;-110.310;2023-05-01T01:05:38;30.80;80.60
41722;DHT22;27407;24.142;-110.310;2023-05-01T01:11:24;30.90;80.50
41722;DHT22;27407;24.142;-110.310;2023-05-01T01:17:10;29.80;82.90
41722;DHT22;27407;24.142;-110.310;2023-05-01T01:22:23;29.40;84.20
41722;DHT22;27407;24.142;-110.310;2023-05-01T01:31:08;28.40;86.30
41722;DHT22;27407;24.142;-110.310;2023-05-01T01:41:57;27.70;88.70
41722;DHT22;27407;24.142;-110.310;2023-05-01T01:44:33;27.70;89.30
41722;DHT22;27407;24.142;-110.310;2023-05-01T01:47:04;27.40;89.90
41722;DHT22;27407;24.142;-110.310;2023-05-01T01:49:33;27.30;90.20
41722;DHT22;27407;24.142;-110.310;2023-05-01T01:52:03;27.20;90.30
41722;DHT22;27407;24.142;-110.310;2023-05-01T01:54:37;27.20;90.50
41722;DHT22;27407;24.142;-110.310;2023-05-01T01:57:07;26.90;90.70
41722;DHT22;27407;24.142;-110.310;2023-05-01T01:59:34;26.90;90.60
41722;DHT22;27407;24.142;-110.310;2023-05-01T02:02:02;26.80;89.70
41722;DHT22;27407;24.142;-110.310;2023-05-01T02:04:30;26.80;90.00
41722;DHT22;27407;24.142;-110.310;2023-05-01T02:06:58;26.80;90.10
41722;DHT22;27407;24.142;-110.310;2023-05-01T02:09:28;26.80;89.50
41722;DHT22;27407;24.142;-110.310;2023-05-01T02:11:56;26.50;88.70
41722;DHT22;27407;24.142;-110.310;2023-05-01T02:14:25;26.50;88.80
41722;DHT22;27407;24.142;-110.310;2023-05-01T02:16:59;26.40;89.80
41722;DHT22;27407;24.142;-110.310;2023-05-01T02:19:27;26.40;90.30
41722;DHT22;27407;24.142;-110.310;2023-05-01T02:21:57;26.40;90.20
41722;DHT22;27407;24.142;-110.310;2023-05-01T02:24:24;26.30;88.90
41722;DHT22;27407;24.142;-110.310;2023-05-01T02:27:12;26.30;89.40
41722;DHT22;27407;24.142;-110.310;2023-05-01T02:29:40;26.20;90.30
41722;DHT22;27407;24.142;-110.310;2023-05-01T02:32:08;26.20;90.90
41722;DHT22;27407;24.142;-110.310;2023-05-01T02:34:34;26.30;91.40
41722;DHT22;27407;24.142;-110.310;2023-05-01T02:37:05;26.10;91.70
41722;DHT22;27407;24.142;-110.310;2023-05-01T02:39:33;26.00;92.10
41722;DHT22;27407;24.142;-110.310;2023-05-01T02:42:01;25.90;92.40
41722;DHT22;27407;24.142;-110.310;2023-05-01T02:44:38;25.90;92.60
41722;DHT22;27407;24.142;-110.310;2023-05-01T02:47:06;25.70;93.20
41722;DHT22;27407;24.142;-110.310;2023-05-01T02:49:35;25.70;94.10
41722;DHT22;27407;24.142;-110.310;2023-05-01T02:52:02;25.60;94.00
41722;DHT22;27407;24.142;-110.310;2023-05-01T02:54:30;25.60;94.70
41722;DHT22;27407;24.142;-110.310;2023-05-01T02:56:57;25.30;95.50
41722;DHT22;27407;24.142;-110.310;2023-05-01T02:59:24;25.20;96.20
41722;DHT22;27407;24.142;-110.310;2023-05-01T03:01:51;25.10;97.80
41722;DHT22;27407;24.142;-110.310;2023-05-01T03:04:18;25.30;99.10
41722;DHT22;27407;24.142;-110.310;2023-05-01T03:06:44;25.20;99.90
41722;DHT22;27407;24.142;-110.310;2023-05-01T03:09:11;25.00;99.90
41722;DHT22;27407;24.142;-110.310;2023-05-01T03:11:37;25.00;99.90
41722;DHT22;27407;24.142;-110.310;2023-05-01T03:14:04;24.90;99.90
41722;DHT22;27407;24.142;-110.310;2023-05-01T03:16:31;24.90;99.90
41722;DHT22;27407;24.142;-110.310;2023-05-01T03:18:58;24.80;99.90
41722;DHT22;27407;24.142;-110.310;2023-05-01T03:21:25;24.80;99.90
41722;DHT22;27407;24.142;-110.310;2023-05-01T03:23:51;24.80;99.90
41722;DHT22;27407;24.142;-110.310;2023-05-01T03:26:18;24.60;99.90
41722;DHT22;27407;24.142;-110.310;2023-05-01T03:28:45;24.60;99.90
41722;DHT22;27407;24.142;-110.310;2023-05-01T03:31:11;24.40;99.90
41722;DHT22;27407;24.142;-110.310;2023-05-01T03:33:38;24.40;99.90
41722;DHT22;27407;24.142;-110.310;2023-05-01T03:36:05;24.40;99.90
41722;DHT22;27407;24.142;-110.310;2023-05-01T03:38:32;24.30;99.90
41722;DHT22;27407;24.142;-110.310;2023-05-01T03:40:59;24.00;99.90
41722;DHT22;27407;24.142;-110.310;2023-05-01T03:43:25;24.20;99.90
41722;DHT22;27407;24.142;-110.310;2023-05-01T03:45:52;23.90;99.90
41722;DHT22;27407;24.142;-110.310;2023-05-01T03:48:19;23.90;99.90
41722;DHT22;27407;24.142;-110.310;2023-05-01T03:50:46;23.80;99.90
41722;DHT22;27407;24.142;-110.310;2023-05-01T03:53:13;23.90;99.90
41722;DHT22;27407;24.142;-110.310;2023-05-01T03:55:56;23.70;99.90
41722;DHT22;27407;24.142;-110.310;2023-05-01T03:58:30;23.60;99.90
41722;DHT22;27407;24.142;-110.310;2023-05-01T04:00:57;23.50;99.90
41722;DHT22;27407;24.142;-110.310;2023-05-01T04:03:29;23.50;99.90
41722;DHT22;27407;24.142;-110.310;2023-05-01T04:05:55;23.60;99.90
41722;DHT22;27407;24.142;-110.310;2023-05-01T04:08:22;23.40;99.90
41722;DHT22;27407;24.142;-110.310;2023-05-01T04:10:51;23.60;99.90
41722;DHT22;27407;24.142;-110.310;2023-05-01T04:13:18;23.50;99.90
41722;DHT22;27407;24.142;-110.310;2023-05-01T04:15:44;23.10;99.90
41722;DHT22;27407;24.142;-110.310;2023-05-01T04:18:11;23.10;99.90
41722;DHT22;27407;24.142;-110.310;2023-05-01T04:20:38;22.90;99.90
41722;DHT22;27407;24.142;-110.310;2023-05-01T04:23:05;23.00;99.90
41722;DHT22;27407;24.142;-110.310;2023-05-01T04:25:32;23.00;99.90
41722;DHT22;27407;24.142;-110.310;2023-05-01T04:27:59;22.90;99.90
41722;DHT22;27407;24.142;-110.310;2023-05-01T04:30:25;22.70;99.90
41722;DHT22;27407;24.142;-110.310;2023-05-01T04:32:52;22.70;99.90
41722;DHT22;27407;24.142;-110.310;2023-05-01T04:35:19;22.60;99.90
41722;DHT22;27407;24.142;-110.310;2023-05-01T04:37:45;22.60;99.90
41722;DHT22;27407;24.142;-110.310;2023-05-01T04:40:12;22.60;99.90
41722;DHT22;27407;24.142;-110.310;2023-05-01T04:42:42;22.50;99.90
41722;DHT22;27407;24.142;-110.310;2023-05-01T04:45:09;22.40;99.90
41722;DHT22;27407;24.142;-110.310;2023-05-01T04:47:38;22.30;99.90
41722;DHT22;27407;24.142;-110.310;2023-05-01T04:50:05;22.40;99.90
41722;DHT22;27407;24.142;-110.310;2023-05-01T04:52:32;22.40;99.90
41722;DHT22;27407;24.142;-110.310;2023-05-01T04:55:03;22.30;99.90
41722;DHT22;27407;24.142;-110.310;2023-05-01T04:57:36;22.40;99.90
41722;DHT22;27407;24.142;-110.310;2023-05-01T05:00:03;22.30;99.90
41722;DHT22;27407;24.142;-110.310;2023-05-01T05:02:30;22.10;99.90
41722;DHT22;27407;24.142;-110.310;2023-05-01T05:04:57;22.10;99.90
41722;DHT22;27407;24.142;-110.310;2023-05-01T05:07:24;22.10;99.90
41722;DHT22;27407;24.142;-110.310;2023-05-01T05:09:50;22.10;99.90
41722;DHT22;27407;24.142;-110.310;2023-05-01T05:12:17;22.20;99.90
41722;DHT22;27407;24.142;-110.310;2023-05-01T05:14:44;22.20;99.90
41722;DHT22;27407;24.142;-110.310;2023-05-01T05:17:10;22.20;99.90
41722;DHT22;27407;24.142;-110.310;2023-05-01T05:19:37;22.20;99.90
41722;DHT22;27407;24.142;-110.310;2023-05-01T05:22:04;22.20;99.90
41722;DHT22;27407;24.142;-110.310;2023-05-01T05:24:30;22.40;99.90
41722;DHT22;27407;24.142;-110.310;2023-05-01T05:26:57;22.30;99.90
41722;DHT22;27407;24.142;-110.310;2023-05-01T05:29:24;22.10;99.90
41722;DHT22;27407;24.142;-110.310;2023-05-01T05:31:51;21.90;99.90
41722;DHT22;27407;24.142;-110.310;2023-05-01T05:34:17;21.90;99.90
41722;DHT22;27407;24.142;-110.310;2023-05-01T05:36:44;21.70;99.90
41722;DHT22;27407;24.142;-110.310;2023-05-01T05:39:11;21.70;99.90
41722;DHT22;27407;24.142;-110.310;2023-05-01T05:41:38;21.50;99.90
41722;DHT22;27407;24.142;-110.310;2023-05-01T05:44:04;21.30;99.90
41722;DHT22;27407;24.142;-110.310;2023-05-01T05:46:32;21.20;99.90
41722;DHT22;27407;24.142;-110.310;2023-05-01T05:48:58;21.30;99.90
41722;DHT22;27407;24.142;-110.310;2023-05-01T05:51:25;21.10;99.90
41722;DHT22;27407;24.142;-110.310;2023-05-01T05:53:56;21.10;99.90
41722;DHT22;27407;24.142;-110.310;2023-05-01T05:56:22;21.10;99.90
41722;DHT22;27407;24.142;-110.310;2023-05-01T05:58:49;20.90;99.90
41722;DHT22;27407;24.142;-110.310;2023-05-01T06:01:16;21.10;99.90
41722;DHT22;27407;24.142;-110.310;2023-05-01T06:03:42;20.90;99.90
41722;DHT22;27407;24.142;-110.310;2023-05-01T06:06:09;21.00;99.90
41722;DHT22;27407;24.142;-110.310;2023-05-01T06:08:36;20.90;99.90
41722;DHT22;27407;24.142;-110.310;2023-05-01T06:11:03;20.90;99.90
41722;DHT22;27407;24.142;-110.310;2023-05-01T06:13:32;20.70;99.90
41722;DHT22;27407;24.142;-110.310;2023-05-01T06:15:59;20.60;99.90
41722;DHT22;27407;24.142;-110.310;2023-05-01T06:18:26;20.60;99.90
41722;DHT22;27407;24.142;-110.310;2023-05-01T06:20:55;20.50;99.90
41722;DHT22;27407;24.142;-110.310;2023-05-01T06:23:22;20.50;99.90
41722;DHT22;27407;24.142;-110.310;2023-05-01T06:25:48;20.40;99.90
41722;DHT22;27407;24.142;-110.310;2023-05-01T06:28:15;20.40;99.90
41722;DHT22;27407;24.142;-110.310;2023-05-01T06:30:41;20.40;99.90
41722;DHT22;27407;24.142;-110.310;2023-05-01T06:33:08;20.20;99.90
41722;DHT22;27407;24.142;-110.310;2023-05-01T06:35:38;19.90;99.90
41722;DHT22;27407;24.142;-110.310;2023-05-01T06:38:05;20.00;99.90
41722;DHT22;27407;24.142;-110.310;2023-05-01T06:40:32;19.80;99.90
41722;DHT22;27407;24.142;-110.310;2023-05-01T06:43:01;19.80;99.90
41722;DHT22;27407;24.142;-110.310;2023-05-01T06:45:28;19.80;99.90
41722;DHT22;27407;24.142;-110.310;2023-05-01T06:47:55;19.70;99.90
41722;DHT22;27407;24.142;-110.310;2023-05-01T06:50:22;19.60;99.90
41722;DHT22;27407;24.142;-110.310;2023-05-01T06:52:48;19.50;99.90
41722;DHT22;27407;24.142;-110.310;2023-05-01T06:55:15;19.50;99.90
41722;DHT22;27407;24.142;-110.310;2023-05-01T06:57:42;19.50;99.90
41722;DHT22;27407;24.142;-110.310;2023-05-01T07:00:09;19.40;99.90
41722;DHT22;27407;24.142;-110.310;2023-05-01T07:02:36;19.20;99.90
41722;DHT22;27407;24.142;-110.310;2023-05-01T07:05:03;19.20;99.90
41722;DHT22;27407;24.142;-110.310;2023-05-01T07:07:30;19.20;99.90
41722;DHT22;27407;24.142;-110.310;2023-05-01T07:09:57;19.10;99.90
41722;DHT22;27407;24.142;-110.310;2023-05-01T07:12:23;19.00;99.90
41722;DHT22;27407;24.142;-110.310;2023-05-01T07:14:50;19.00;99.90
41722;DHT22;27407;24.142;-110.310;2023-05-01T07:17:17;19.00;99.90
41722;DHT22;27407;24.142;-110.310;2023-05-01T07:19:46;19.00;99.90
41722;DHT22;27407;24.142;-110.310;2023-05-01T07:22:12;19.00;99.90
41722;DHT22;27407;24.142;-110.310;2023-05-01T07:24:39;19.00;99.90
41722;DHT22;27407;24.142;-110.310;2023-05-01T07:27:06;19.00;99.90
41722;DHT22;27407;24.142;-110.310;2023-05-01T07:29:32;19.10;99.90
41722;DHT22;27407;24.142;-110.310;2023-05-01T07:32:01;19.10;99.90
41722;DHT22;27407;24.142;-110.310;2023-05-01T07:34:30;19.00;99.90
41722;DHT22;27407;24.142;-110.310;2023-05-01T07:36:57;19.10;99.90
41722;DHT22;27407;24.142;-110.310;2023-05-01T07:39:26;19.10;99.90
41722;DHT22;27407;24.142;-110.310;2023-05-01T07:41:52;18.90;99.90
41722;DHT22;27407;24.142;-110.310;2023-05-01T07:44:19;18.90;99.90
41722;DHT22;27407;24.142;-110.310;2023-05-01T07:46:46;18.90;99.90
41722;DHT22;27407;24.142;-110.310;2023-05-01T07:49:12;18.90;99.90
41722;DHT22;27407;24.142;-110.310;2023-05-01T07:51:39;19.00;99.90
41722;DHT22;27407;24.142;-110.310;2023-05-01T07:54:07;19.00;99.90
41722;DHT22;27407;24.142;-110.310;2023-05-01T07:56:34;19.00;99.90
41722;DHT22;27407;24.142;-110.310;2023-05-01T07:59:00;18.90;99.90
41722;DHT22;27407;24.142;-110.310;2023-05-01T08:01:27;19.00;99.90
41722;DHT22;27407;24.142;-110.310;2023-05-01T08:03:53;19.10;99.90
41722;DHT22;27407;24.142;-110.310;2023-05-01T08:06:20;18.90;99.90
41722;DHT22;27407;24.142;-110.310;2023-05-01T08:08:47;19.00;99.90
41722;DHT22;27407;24.142;-110.310;2023-05-01T08:11:13;18.80;99.90
41722;DHT22;27407;24.142;-110.310;2023-05-01T08:13:41;18.80;99.90
41722;DHT22;27407;24.142;-110.310;2023-05-01T08:16:08;18.80;99.90
41722;DHT22;27407;24.142;-110.310;2023-05-01T08:18:34;18.80;99.90
41722;DHT22;27407;24.142;-110.310;2023-05-01T08:21:01;18.70;99.90
41722;DHT22;27407;24.142;-110.310;2023-05-01T08:23:27;18.70;99.90
41722;DHT22;27407;24.142;-110.310;2023-05-01T08:25:57;18.60;99.90
41722;DHT22;27407;24.142;-110.310;2023-05-01T08:28:24;18.70;99.90
41722;DHT22;27407;24.142;-110.310;2023-05-01T08:30:54;18.40;99.90
41722;DHT22;27407;24.142;-110.310;2023-05-01T08:33:20;18.40;99.90
41722;DHT22;27407;24.142;-110.310;2023-05-01T08:35:48;18.40;99.90
41722;DHT22;27407;24.142;-110.310;2023-05-01T08:38:14;18.30;99.90
41722;DHT22;27407;24.142;-110.310;2023-05-01T08:40:46;18.30;99.90
41722;DHT22;27407;24.142;-110.310;2023-05-01T08:43:16;18.30;99.90
41722;DHT22;27407;24.142;-110.310;2023-05-01T08:45:43;18.40;99.90
41722;DHT22;27407;24.142;-110.310;2023-05-01T08:48:14;18.30;99.90
41722;DHT22;27407;24.142;-110.310;2023-05-01T08:50:45;18.40;99.90
41722;DHT22;27407;24.142;-110.310;2023-05-01T08:53:15;18.40;99.90
41722;DHT22;27407;24.142;-110.310;2023-05-01T08:55:44;18.50;99.90
41722;DHT22;27407;24.142;-110.310;2023-05-01T08:58:13;18.40;99.90
41722;DHT22;27407;24.142;-110.310;2023-05-01T09:00:41;18.50;99.90
41722;DHT22;27407;24.142;-110.310;2023-05-01T09:03:10;18.70;99.90
41722;DHT22;27407;24.142;-110.310;2023-05-01T09:05:39;18.80;99.90
41722;DHT22;27407;24.142;-110.310;2023-05-01T09:08:06;18.90;99.90
41722;DHT22;27407;24.142;-110.310;2023-05-01T09:10:33;18.70;99.90
41722;DHT22;27407;24.142;-110.310;2023-05-01T09:13:04;18.60;99.90
41722;DHT22;27407;24.142;-110.310;2023-05-01T09:15:33;18.60;99.90
41722;DHT22;27407;24.142;-110.310;2023-05-01T09:18:00;18.70;99.90
41722;DHT22;27407;24.142;-110.310;2023-05-01T09:20:27;18.60;99.90
41722;DHT22;27407;24.142;-110.310;2023-05-01T09:23:00;18.50;99.90
41722;DHT22;27407;24.142;-110.310;2023-05-01T09:25:27;18.70;99.90
41722;DHT22;27407;24.142;-110.310;2023-05-01T09:27:53;18.80;99.90
41722;DHT22;27407;24.142;-110.310;2023-05-01T09:30:36;18.70;99.90
41722;DHT22;27407;24.142;-110.310;2023-05-01T09:33:09;18.70;99.90
41722;DHT22;27407;24.142;-110.310;2023-05-01T09:35:55;18.70;99.90
41722;DHT22;27407;24.142;-110.310;2023-05-01T09:38:24;18.70;99.90
41722;DHT22;27407;24.142;-110.310;2023-05-01T09:40:54;18.70;99.90
41722;DHT22;27407;24.142;-110.310;2023-05-01T09:43:24;18.90;99.90
41722;DHT22;27407;24.142;-110.310;2023-05-01T09:46:07;18.70;99.90
41722;DHT22;27407;24.142;-110.310;2023-05-01T09:48:37;18.90;99.90
41722;DHT22;27407;24.142;-110.310;2023-05-01T09:53:58;18.80;99.90
41722;DHT22;27407;24.142;-110.310;2023-05-01T09:56:30;18.90;99.90
41722;DHT22;27407;24.142;-110.310;2023-05-01T09:58:58;18.90;99.90
41722;DHT22;27407;24.142;-110.310;2023-05-01T10:01:43;18.90;99.90
41722;DHT22;27407;24.142;-110.310;2023-05-01T10:04:10;18.80;99.90
41722;DHT22;27407;24.142;-110.310;2023-05-01T10:06:38;18.90;99.90
41722;DHT22;27407;24.142;-110.310;2023-05-01T10:09:06;19.00;99.90
41722;DHT22;27407;24.142;-110.310;2023-05-01T10:11:58;18.90;99.90
41722;DHT22;27407;24.142;-110.310;2023-05-01T10:14:26;19.00;99.90
41722;DHT22;27407;24.142;-110.310;2023-05-01T10:17:27;18.90;99.90
41722;DHT22;27407;24.142;-110.310;2023-05-01T10:19:56;18.90;99.90
41722;DHT22;27407;24.142;-110.310;2023-05-01T10:22:28;18.90;99.90
41722;DHT22;27407;24.142;-110.310;2023-05-01T10:24:55;18.90;99.90
41722;DHT22;27407;24.142;-110.310;2023-05-01T10:27:24;18.80;99.90
41722;DHT22;27407;24.142;-110.310;2023-05-01T10:29:54;18.70;99.90
41722;DHT22;27407;24.142;-110.310;2023-05-01T10:32:21;18.70;99.90
41722;DHT22;27407;24.142;-110.310;2023-05-01T10:34:55;18.70;99.90
41722;DHT22;27407;24.142;-110.310;2023-05-01T10:37:28;18.60;99.90
41722;DHT22;27407;24.142;-110.310;2023-05-01T10:39:59;18.70;99.90
41722;DHT22;27407;24.142;-110.310;2023-05-01T10:42:26;18.30;99.90
41722;DHT22;27407;24.142;-110.310;2023-05-01T10:45:28;18.50;99.90
41722;DHT22;27407;24.142;-110.310;2023-05-01T10:47:55;18.50;99.90
41722;DHT22;27407;24.142;-110.310;2023-05-01T10:50:22;18.40;99.90
41722;DHT22;27407;24.142;-110.310;2023-05-01T10:53:24;18.50;99.90
41722;DHT22;27407;24.142;-110.310;2023-05-01T10:55:51;18.50;99.90
41722;DHT22;27407;24.142;-110.310;2023-05-01T11:01:28;18.40;99.90
41722;DHT22;27407;24.142;-110.310;2023-05-01T11:04:00;18.60;99.90
41722;DHT22;27407;24.142;-110.310;2023-05-01T11:06:28;18.40;99.90
41722;DHT22;27407;24.142;-110.310;2023-05-01T11:08:55;18.70;99.90
41722;DHT22;27407;24.142;-110.310;2023-05-01T11:14:07;18.50;99.90
41722;DHT22;27407;24.142;-110.310;2023-05-01T11:19:12;18.40;99.90
41722;DHT22;27407;24.142;-110.310;2023-05-01T11:21:56;18.40;99.90
41722;DHT22;27407;24.142;-110.310;2023-05-01T11:24:33;18.50;99.90
41722;DHT22;27407;24.142;-110.310;2023-05-01T11:27:03;18.40;99.90
41722;DHT22;27407;24.142;-110.310;2023-05-01T11:29:36;18.30;99.90
41722;DHT22;27407;24.142;-110.310;2023-05-01T11:32:03;18.30;99.90
41722;DHT22;27407;24.142;-110.310;2023-05-01T11:34:34;18.20;99.90
41722;DHT22;27407;24.142;-110.310;2023-05-01T11:37:04;18.30;99.90
41722;DHT22;27407;24.142;-110.310;2023-05-01T11:39:34;18.30;99.90
41722;DHT22;27407;24.142;-110.310;2023-05-01T11:42:10;18.30;99.90
41722;DHT22;27407;24.142;-110.310;2023-05-01T11:44:36;18.30;99.90
41722;DHT22;27407;24.142;-110.310;2023-05-01T11:47:03;18.20;99.90
41722;DHT22;27407;24.142;-110.310;2023-05-01T11:49:32;18.10;99.90
41722;DHT22;27407;24.142;-110.310;2023-05-01T11:51:59;18.00;99.90
41722;DHT22;27407;24.142;-110.310;2023-05-01T11:54:26;17.90;99.90
41722;DHT22;27407;24.142;-110.310;2023-05-01T11:56:59;18.00;99.90
41722;DHT22;27407;24.142;-110.310;2023-05-01T11:59:32;17.90;99.90
41722;DHT22;27407;24.142;-110.310;2023-05-01T12:02:18;17.90;99.90
41722;DHT22;27407;24.142;-110.310;2023-05-01T12:04:48;18.00;99.90
41722;DHT22;27407;24.142;-110.310;2023-05-01T12:07:24;18.00;99.90
41722;DHT22;27407;24.142;-110.310;2023-05-01T12:09:51;17.80;99.90
41722;DHT22;27407;24.142;-110.310;2023-05-01T12:12:17;18.10;99.90
41722;DHT22;27407;24.142;-110.310;2023-05-01T12:14:44;17.90;99.90
41722;DHT22;27407;24.142;-110.310;2023-05-01T12:17:11;17.80;99.90
41722;DHT22;27407;24.142;-110.310;2023-05-01T12:19:47;17.90;99.90
41722;DHT22;27407;24.142;-110.310;2023-05-01T12:22:14;17.90;99.90
41722;DHT22;27407;24.142;-110.310;2023-05-01T12:25:00;17.80;99.90
41722;DHT22;27407;24.142;-110.310;2023-05-01T12:27:28;17.80;99.90
41722;DHT22;27407;24.142;-110.310;2023-05-01T12:29:55;17.70;99.90
41722;DHT22;27407;24.142;-110.310;2023-05-01T12:32:30;17.80;99.90
41722;DHT22;27407;24.142;-110.310;2023-05-01T12:34:57;17.70;99.90
41722;DHT22;27407;24.142;-110.310;2023-05-01T12:37:30;17.70;99.90
41722;DHT22;27407;24.142;-110.310;2023-05-01T12:39:57;17.60;99.90
41722;DHT22;27407;24.142;-110.310;2023-05-01T12:42:27;17.50;99.90
41722;DHT22;27407;24.142;-110.310;2023-05-01T12:44:59;17.40;99.90
41722;DHT22;27407;24.142;-110.310;2023-05-01T12:47:34;17.40;99.90
41722;DHT22;27407;24.142;-110.310;2023-05-01T12:50:02;17.60;99.90
41722;DHT22;27407;24.142;-110.310;2023-05-01T12:52:30;17.50;99.90
41722;DHT22;27407;24.142;-110.310;2023-05-01T12:55:04;17.50;99.90
41722;DHT22;27407;24.142;-110.310;2023-05-01T12:57:31;17.50;99.90
41722;DHT22;27407;24.142;-110.310;2023-05-01T13:00:02;17.50;99.90
41722;DHT22;27407;24.142;-110.310;2023-05-01T13:02:32;17.70;99.90
41722;DHT22;27407;24.142;-110.310;2023-05-01T13:05:07;17.60;99.90
41722;DHT22;27407;24.142;-110.310;2023-05-01T13:07:35;17.50;99.90
41722;DHT22;27407;24.142;-110.310;2023-05-01T13:10:02;17.40;99.90
41722;DHT22;27407;24.142;-110.310;2023-05-01T13:12:31;17.60;99.90
41722;DHT22;27407;24.142;-110.310;2023-05-01T13:14:58;17.50;99.90
41722;DHT22;27407;24.142;-110.310;2023-05-01T13:17:30;17.50;99.90
41722;DHT22;27407;24.142;-110.310;2023-05-01T13:20:04;17.40;99.90
41722;DHT22;27407;24.142;-110.310;2023-05-01T13:22:32;17.40;99.90
41722;DHT22;27407;24.142;-110.310;2023-05-01T13:25:00;17.40;99.90
41722;DHT22;27407;24.142;-110.310;2023-05-01T13:27:28;17.50;99.90
41722;DHT22;27407;24.142;-110.310;2023-05-01T13:29:56;17.70;99.90
41722;DHT22;27407;24.142;-110.310;2023-05-01T13:32:24;17.70;99.90
41722;DHT22;27407;24.142;-110.310;2023-05-01T13:34:52;17.70;99.90
41722;DHT22;27407;24.142;-110.310;2023-05-01T13:37:23;17.70;99.90
41722;DHT22;27407;24.142;-110.310;2023-05-01T13:39:49;17.70;99.90
41722;DHT22;27407;24.142;-110.310;2023-05-01T13:42:23;17.70;99.90
41722;DHT22;27407;24.142;-110.310;2023-05-01T13:44:54;17.90;99.90
41722;DHT22;27407;24.142;-110.310;2023-05-01T13:47:23;17.90;99.90
41722;DHT22;27407;24.142;-110.310;2023-05-01T13:49:53;17.90;99.90
41722;DHT22;27407;24.142;-110.310;2023-05-01T13:52:20;17.90;99.90
41722;DHT22;27407;24.142;-110.310;2023-05-01T13:54:47;18.00;99.90
41722;DHT22;27407;24.142;-110.310;2023-05-01T13:57:14;18.00;99.90
41722;DHT22;27407;24.142;-110.310;2023-05-01T13:59:45;18.00;99.90
41722;DHT22;27407;24.142;-110.310;2023-05-01T14:02:26;18.00;99.90
41722;DHT22;27407;24.142;-110.310;2023-05-01T14:04:54;18.20;99.90
41722;DHT22;27407;24.142;-110.310;2023-05-01T14:07:23;18.10;99.90
41722;DHT22;27407;24.142;-110.310;2023-05-01T14:09:56;18.20;99.90
41722;DHT22;27407;24.142;-110.310;2023-05-01T14:12:36;18.20;99.90
41722;DHT22;27407;24.142;-110.310;2023-05-01T14:15:14;18.30;99.90
41722;DHT22;27407;24.142;-110.310;2023-05-01T14:17:44;18.40;99.90
41722;DHT22;27407;24.142;-110.310;2023-05-01T14:20:11;18.30;99.90
41722;DHT22;27407;24.142;-110.310;2023-05-01T14:22:47;18.60;99.90
41722;DHT22;27407;24.142;-110.310;2023-05-01T14:25:29;18.60;99.90
41722;DHT22;27407;24.142;-110.310;2023-05-01T14:27:58;18.70;99.90
41722;DHT22;27407;24.142;-110.310;2023-05-01T14:30:35;18.70;99.90
41722;DHT22;27407;24.142;-110.310;2023-05-01T14:33:07;18.70;99.90
41722;DHT22;27407;24.142;-110.310;2023-05-01T14:35:35;19.10;99.90
41722;DHT22;27407;24.142;-110.310;2023-05-01T14:38:11;19.10;99.90
41722;DHT22;27407;24.142;-110.310;2023-05-01T14:40:45;19.20;99.90
41722;DHT22;27407;24.142;-110.310;2023-05-01T14:43:19;19.30;99.90
41722;DHT22;27407;24.142;-110.310;2023-05-01T14:45:49;19.40;99.90
41722;DHT22;27407;24.142;-110.310;2023-05-01T14:48:21;19.20;99.90
41722;DHT22;27407;24.142;-110.310;2023-05-01T14:50:49;19.30;99.90
41722;DHT22;27407;24.142;-110.310;2023-05-01T14:53:16;19.40;99.90
41722;DHT22;27407;24.142;-110.310;2023-05-01T14:55:43;19.50;99.90
41722;DHT22;27407;24.142;-110.310;2023-05-01T14:58:09;19.40;99.90
41722;DHT22;27407;24.142;-110.310;2023-05-01T15:00:36;19.70;99.90
41722;DHT22;27407;24.142;-110.310;2023-05-01T15:03:03;19.80;99.90
41722;DHT22;27407;24.142;-110.310;2023-05-01T15:05:29;20.00;99.90
41722;DHT22;27407;24.142;-110.310;2023-05-01T15:07:56;20.20;99.90
41722;DHT22;27407;24.142;-110.310;2023-05-01T15:10:25;20.30;99.90
41722;DHT22;27407;24.142;-110.310;2023-05-01T15:12:53;20.40;99.90
41722;DHT22;27407;24.142;-110.310;2023-05-01T15:15:20;20.60;99.90
41722;DHT22;27407;24.142;-110.310;2023-05-01T15:17:47;20.90;99.90
41722;DHT22;27407;24.142;-110.310;2023-05-01T15:20:13;20.90;99.90
41722;DHT22;27407;24.142;-110.310;2023-05-01T15:22:40;21.10;99.90
41722;DHT22;27407;24.142;-110.310;2023-05-01T15:25:08;21.20;99.90
41722;DHT22;27407;24.142;-110.310;2023-05-01T15:27:38;21.50;99.90
41722;DHT22;27407;24.142;-110.310;2023-05-01T15:30:05;21.50;99.90
41722;DHT22;27407;24.142;-110.310;2023-05-01T15:32:32;21.70;99.90
41722;DHT22;27407;24.142;-110.310;2023-05-01T15:34:58;22.00;99.90